createdAt,value
2016-04-16T00:00:52.805Z,991.64
2016-04-16T00:01:52.824Z,991.61
2016-04-16T00:02:52.842Z,991.65
2016-04-16T00:03:52.861Z,991.7
2016-04-16T00:04:52.880Z,991.66
2016-04-16T00:05:52.913Z,991.71
2016-04-16T00:06:52.916Z,991.7
2016-04-16T00:07:52.934Z,991.74
2016-04-16T00:08:52.968Z,991.73
2016-04-16T00:09:52.986Z,991.74
2016-04-16T00:10:53.004Z,991.74
2016-04-16T00:11:53.023Z,991.72
2016-04-16T00:12:53.040Z,991.76
2016-04-16T00:13:53.059Z,991.73
2016-04-16T00:14:53.093Z,991.71
2016-04-16T00:15:53.112Z,991.71
2016-04-16T00:16:53.130Z,991.7
2016-04-16T00:17:53.149Z,991.68
2016-04-16T00:18:53.167Z,991.63
2016-04-16T00:19:53.201Z,991.6
2016-04-16T00:20:53.203Z,991.62
2016-04-16T00:21:53.237Z,991.59
2016-04-16T00:22:53.256Z,991.55
2016-04-16T00:23:53.274Z,991.54
2016-04-16T00:24:53.293Z,991.51
2016-04-16T00:25:53.311Z,991.55
2016-04-16T00:26:53.329Z,991.45
2016-04-16T00:27:53.363Z,991.47
2016-04-16T00:28:53.366Z,991.42
2016-04-16T00:29:53.400Z,991.45
2016-04-16T00:30:53.417Z,991.4
2016-04-16T00:31:53.436Z,991.46
2016-04-16T00:32:53.454Z,991.43
2016-04-16T00:33:53.472Z,991.42
2016-04-16T00:34:53.553Z,991.43
2016-04-16T00:35:53.510Z,991.37
2016-04-16T00:36:53.544Z,991.35
2016-04-16T00:37:53.561Z,991.35
2016-04-16T00:38:53.580Z,991.33
2016-04-16T00:39:53.598Z,991.33
2016-04-16T00:40:53.616Z,991.38
2016-04-16T00:41:53.635Z,991.4
2016-04-16T00:42:53.653Z,991.4
2016-04-16T00:43:53.687Z,991.37
2016-04-16T00:44:53.704Z,991.37
2016-04-16T00:45:53.723Z,991.38
2016-04-16T00:46:53.742Z,991.38
2016-04-16T00:47:53.760Z,991.35
2016-04-16T00:48:53.779Z,991.39
2016-04-16T00:49:53.813Z,991.39
2016-04-16T00:50:53.831Z,991.42
2016-04-16T00:51:53.849Z,991.41
2016-04-16T00:52:53.867Z,991.34
2016-04-16T00:53:53.887Z,991.32
2016-04-16T00:54:53.904Z,991.3
2016-04-16T00:55:53.923Z,991.27
2016-04-16T00:56:53.942Z,991.28
2016-04-16T00:57:53.959Z,991.31
2016-04-16T00:58:53.993Z,991.31
2016-04-16T00:59:54.011Z,991.38
2016-04-16T01:00:54.030Z,991.38
2016-04-16T01:01:54.047Z,991.4
2016-04-16T01:02:54.066Z,991.4
2016-04-16T01:03:54.085Z,991.34
2016-04-16T01:04:54.103Z,991.31
2016-04-16T01:05:54.122Z,991.31
2016-04-16T01:06:54.155Z,991.3
2016-04-16T01:07:54.174Z,991.25
2016-04-16T01:08:54.191Z,991.26
2016-04-16T01:09:54.210Z,991.23
2016-04-16T01:10:54.229Z,991.24
2016-04-16T01:11:54.246Z,991.23
2016-04-16T01:12:54.265Z,991.22
2016-04-16T01:13:54.298Z,991.14
2016-04-16T01:14:54.318Z,991.11
2016-04-16T01:15:54.335Z,991.14
2016-04-16T01:16:54.354Z,991.08
2016-04-16T01:17:54.372Z,991.11
2016-04-16T01:18:54.390Z,991.07
2016-04-16T01:19:54.409Z,991.04
2016-04-16T01:20:54.426Z,991.06
2016-04-16T01:21:54.462Z,991.05
2016-04-16T01:22:54.479Z,991.06
2016-04-16T01:23:54.498Z,991.05
2016-04-16T01:24:54.516Z,991.02
2016-04-16T01:25:54.534Z,991
2016-04-16T01:26:54.552Z,991.01
2016-04-16T01:27:54.570Z,991.02
2016-04-16T01:28:54.589Z,991.05
2016-04-16T01:29:54.623Z,991.01
2016-04-16T01:30:54.641Z,991.04
2016-04-16T01:31:54.660Z,991.01
2016-04-16T01:32:54.678Z,991.02
2016-04-16T01:33:54.696Z,990.99
2016-04-16T01:34:54.714Z,991.01
2016-04-16T01:35:54.733Z,991
2016-04-16T01:36:54.766Z,991.03
2016-04-16T01:37:54.785Z,990.98
2016-04-16T01:38:54.804Z,990.98
2016-04-16T01:39:54.821Z,990.97
2016-04-16T01:40:54.840Z,990.96
2016-04-16T01:41:54.858Z,990.96
2016-04-16T01:42:54.876Z,990.96
2016-04-16T01:43:54.895Z,990.97
2016-04-16T01:44:54.913Z,990.92
2016-04-16T01:45:54.948Z,990.92
2016-04-16T01:46:54.966Z,990.92
2016-04-16T01:47:54.985Z,990.89
2016-04-16T01:48:55.002Z,990.89
2016-04-16T01:49:55.021Z,990.89
2016-04-16T01:50:55.039Z,990.91
2016-04-16T01:51:55.073Z,990.92
2016-04-16T01:52:55.091Z,990.92
2016-04-16T01:53:55.094Z,990.87
2016-04-16T01:54:55.128Z,990.91
2016-04-16T01:55:55.146Z,990.9
2016-04-16T01:56:55.165Z,990.86
2016-04-16T01:57:55.183Z,990.79
2016-04-16T01:58:55.201Z,990.79
2016-04-16T01:59:55.219Z,990.74
2016-04-16T02:00:55.238Z,990.72
2016-04-16T02:01:55.271Z,990.74
2016-04-16T02:02:55.293Z,990.79
2016-04-16T02:03:55.312Z,990.77
2016-04-16T02:04:55.330Z,990.8
2016-04-16T02:05:55.348Z,990.84
2016-04-16T02:06:55.367Z,990.83
2016-04-16T02:07:55.386Z,990.79
2016-04-16T02:08:55.403Z,990.76
2016-04-16T02:09:55.422Z,990.8
2016-04-16T02:10:55.440Z,990.79
2016-04-16T02:11:55.475Z,990.8
2016-04-16T02:12:55.493Z,990.78
2016-04-16T02:13:55.511Z,990.77
2016-04-16T02:14:55.530Z,990.74
2016-04-16T02:15:55.547Z,990.73
2016-04-16T02:16:55.566Z,990.75
2016-04-16T02:17:55.583Z,990.77
2016-04-16T02:18:55.618Z,990.72
2016-04-16T02:19:55.636Z,990.74
2016-04-16T02:20:55.655Z,990.72
2016-04-16T02:21:55.674Z,990.72
2016-04-16T02:22:55.694Z,990.7
2016-04-16T02:23:55.727Z,990.73
2016-04-16T02:24:55.730Z,990.67
2016-04-16T02:25:55.748Z,990.64
2016-04-16T02:26:55.767Z,990.63
2016-04-16T02:27:55.785Z,990.63
2016-04-16T02:28:55.818Z,990.6
2016-04-16T02:29:55.838Z,990.66
2016-04-16T02:30:55.856Z,990.63
2016-04-16T02:31:55.874Z,990.61
2016-04-16T02:32:55.892Z,990.61
2016-04-16T02:33:55.911Z,990.6
2016-04-16T02:34:55.928Z,990.63
2016-04-16T02:35:55.962Z,990.6
2016-04-16T02:36:55.981Z,990.66
2016-04-16T02:37:56.000Z,990.65
2016-04-16T02:38:56.018Z,990.59
2016-04-16T02:39:56.036Z,990.6
2016-04-16T02:40:56.055Z,990.58
2016-04-16T02:41:56.072Z,990.62
2016-04-16T02:42:56.091Z,990.61
2016-04-16T02:43:56.108Z,990.62
2016-04-16T02:44:56.168Z,990.58
2016-04-16T02:45:56.245Z,990.55
2016-04-16T02:46:56.306Z,990.54
2016-04-16T02:47:56.368Z,990.51
2016-04-16T02:48:56.428Z,990.55
2016-04-16T02:49:56.463Z,990.56
2016-04-16T02:50:56.496Z,990.56
2016-04-16T02:51:56.546Z,990.58
2016-04-16T02:52:56.564Z,990.56
2016-04-16T02:53:56.614Z,990.52
2016-04-16T02:54:56.638Z,990.54
2016-04-16T02:55:56.661Z,990.5
2016-04-16T02:56:56.686Z,990.53
2016-04-16T02:57:56.709Z,990.56
2016-04-16T02:58:56.733Z,990.53
2016-04-16T02:59:56.754Z,990.54
2016-04-16T03:00:56.774Z,990.49
2016-04-16T03:01:56.794Z,990.48
2016-04-16T03:02:56.847Z,990.44
2016-04-16T03:03:56.851Z,990.46
2016-04-16T03:04:56.869Z,990.46
2016-04-16T03:05:56.889Z,990.48
2016-04-16T03:06:56.908Z,990.45
2016-04-16T03:07:56.927Z,990.45
2016-04-16T03:08:56.946Z,990.47
2016-04-16T03:09:56.980Z,990.5
2016-04-16T03:10:56.983Z,990.48
2016-04-16T03:11:57.018Z,990.46
2016-04-16T03:12:57.037Z,990.46
2016-04-16T03:13:57.056Z,990.41
2016-04-16T03:14:57.073Z,990.4
2016-04-16T03:15:57.092Z,990.32
2016-04-16T03:16:57.111Z,990.33
2016-04-16T03:17:57.128Z,990.32
2016-04-16T03:18:57.147Z,990.31
2016-04-16T03:19:57.180Z,990.32
2016-04-16T03:20:57.200Z,990.33
2016-04-16T03:21:57.217Z,990.29
2016-04-16T03:22:57.236Z,990.33
2016-04-16T03:23:57.254Z,990.33
2016-04-16T03:24:57.272Z,990.32
2016-04-16T03:25:57.290Z,990.28
2016-04-16T03:26:57.308Z,990.31
2016-04-16T03:27:57.327Z,990.29
2016-04-16T03:28:57.361Z,990.31
2016-04-16T03:29:57.380Z,990.27
2016-04-16T03:30:57.398Z,990.27
2016-04-16T03:31:57.432Z,990.25
2016-04-16T03:32:57.435Z,990.24
2016-04-16T03:33:57.452Z,990.22
2016-04-16T03:34:57.471Z,990.23
2016-04-16T03:35:57.489Z,990.23
2016-04-16T03:36:57.507Z,990.27
2016-04-16T03:37:57.542Z,990.28
2016-04-16T03:38:57.560Z,990.26
2016-04-16T03:39:57.578Z,990.25
2016-04-16T03:40:57.596Z,990.26
2016-04-16T03:41:57.615Z,990.27
2016-04-16T03:42:57.633Z,990.21
2016-04-16T03:43:57.668Z,990.21
2016-04-16T03:44:57.670Z,990.17
2016-04-16T03:45:57.689Z,990.14
2016-04-16T03:46:57.722Z,990.13
2016-04-16T03:47:57.740Z,990.11
2016-04-16T03:48:57.759Z,990.12
2016-04-16T03:49:57.777Z,990.14
2016-04-16T03:50:57.795Z,990.13
2016-04-16T03:51:57.813Z,990.12
2016-04-16T03:52:57.833Z,990.07
2016-04-16T03:53:57.850Z,990.1
2016-04-16T03:54:57.869Z,990.08
2016-04-16T03:55:57.902Z,990.1
2016-04-16T03:56:57.921Z,990.12
2016-04-16T03:57:57.939Z,990.13
2016-04-16T03:58:57.957Z,990.15
2016-04-16T03:59:57.976Z,990.11
2016-04-16T04:00:57.993Z,990.16
2016-04-16T04:01:58.012Z,990.2
2016-04-16T04:02:58.046Z,990.21
2016-04-16T04:03:58.065Z,990.23
2016-04-16T04:04:58.083Z,990.19
2016-04-16T04:05:58.101Z,990.16
2016-04-16T04:06:58.120Z,990.13
2016-04-16T04:07:58.137Z,990.07
2016-04-16T04:08:58.156Z,990.01
2016-04-16T04:09:58.174Z,989.98
2016-04-16T04:10:58.209Z,989.98
2016-04-16T04:11:58.227Z,990.02
2016-04-16T04:12:58.245Z,990.06
2016-04-16T04:13:58.310Z,990.02
2016-04-16T04:14:58.281Z,990.01
2016-04-16T04:15:58.300Z,990.05
2016-04-16T04:16:58.318Z,989.98
2016-04-16T04:17:58.336Z,989.98
2016-04-16T04:18:58.355Z,989.95
2016-04-16T04:19:58.373Z,989.93
2016-04-16T04:20:58.408Z,989.93
2016-04-16T04:21:58.426Z,989.91
2016-04-16T04:22:58.444Z,989.95
2016-04-16T04:23:58.462Z,989.98
2016-04-16T04:24:58.480Z,989.99
2016-04-16T04:25:58.499Z,990.02
2016-04-16T04:26:58.516Z,989.99
2016-04-16T04:27:58.535Z,990.02
2016-04-16T04:28:58.569Z,989.97
2016-04-16T04:29:58.588Z,989.95
2016-04-16T04:30:58.606Z,989.98
2016-04-16T04:31:58.624Z,990
2016-04-16T04:32:58.643Z,990.01
2016-04-16T04:33:58.660Z,989.95
2016-04-16T04:34:58.680Z,989.94
2016-04-16T04:35:58.713Z,989.93
2016-04-16T04:36:58.732Z,989.89
2016-04-16T04:37:58.750Z,989.88
2016-04-16T04:38:58.768Z,989.9
2016-04-16T04:39:58.787Z,989.91
2016-04-16T04:40:58.804Z,989.92
2016-04-16T04:41:58.823Z,989.91
2016-04-16T04:42:58.841Z,989.87
2016-04-16T04:43:58.860Z,989.87
2016-04-16T04:44:58.893Z,989.9
2016-04-16T04:45:58.912Z,989.92
2016-04-16T04:46:58.931Z,989.92
2016-04-16T04:47:58.948Z,989.93
2016-04-16T04:48:58.967Z,989.93
2016-04-16T04:49:58.985Z,989.94
2016-04-16T04:50:59.066Z,989.9
2016-04-16T04:51:59.022Z,989.96
2016-04-16T04:52:59.040Z,989.91
2016-04-16T04:53:59.075Z,989.95
2016-04-16T04:54:59.092Z,989.9
2016-04-16T04:55:59.111Z,989.91
2016-04-16T04:56:59.129Z,989.91
2016-04-16T04:57:59.147Z,989.96
2016-04-16T04:58:59.165Z,989.94
2016-04-16T04:59:59.184Z,989.94
2016-04-16T05:00:59.202Z,989.93
2016-04-16T05:01:59.221Z,989.97
2016-04-16T05:02:59.255Z,989.96
2016-04-16T05:03:59.273Z,989.99
2016-04-16T05:04:59.291Z,989.99
2016-04-16T05:05:59.340Z,989.99
2016-04-16T05:06:59.327Z,990.01
2016-04-16T05:07:59.349Z,990.03
2016-04-16T05:08:59.368Z,990.05
2016-04-16T05:09:59.385Z,990.08
2016-04-16T05:10:59.404Z,990.04
2016-04-16T05:11:59.422Z,990.03
2016-04-16T05:12:59.457Z,990.01
2016-04-16T05:13:59.474Z,990
2016-04-16T05:14:59.493Z,990.02
2016-04-16T05:15:59.512Z,990
2016-04-16T05:16:59.529Z,990.05
2016-04-16T05:17:59.547Z,990.1
2016-04-16T05:18:59.566Z,990.12
2016-04-16T05:19:59.600Z,990.17
2016-04-16T05:20:59.618Z,990.11
2016-04-16T05:21:59.637Z,990.17
2016-04-16T05:22:59.656Z,990.17
2016-04-16T05:23:59.673Z,990.18
2016-04-16T05:24:59.692Z,990.23
2016-04-16T05:25:59.711Z,990.25
2016-04-16T05:26:59.728Z,990.26
2016-04-16T05:27:59.761Z,990.25
2016-04-16T05:28:59.781Z,990.21
2016-04-16T05:29:59.799Z,990.22
2016-04-16T05:30:59.817Z,990.22
2016-04-16T05:31:59.836Z,990.23
2016-04-16T05:32:59.855Z,990.24
2016-04-16T05:33:59.888Z,990.28
2016-04-16T05:34:59.890Z,990.31
2016-04-16T05:35:59.924Z,990.28
2016-04-16T05:36:59.943Z,990.29
2016-04-16T05:37:59.977Z,990.29
2016-04-16T05:38:59.979Z,990.29
2016-04-16T05:39:59.998Z,990.29
2016-04-16T05:41:00.016Z,990.33
2016-04-16T05:42:00.035Z,990.31
2016-04-16T05:43:00.068Z,990.36
2016-04-16T05:44:00.087Z,990.35
2016-04-16T05:45:00.104Z,990.29
2016-04-16T05:46:00.123Z,990.3
2016-04-16T05:47:00.142Z,990.3
2016-04-16T05:48:00.159Z,990.29
2016-04-16T05:49:00.194Z,990.28
2016-04-16T05:50:00.212Z,990.31
2016-04-16T05:51:00.231Z,990.35
2016-04-16T05:52:00.248Z,990.34
2016-04-16T05:53:00.267Z,990.32
2016-04-16T05:54:00.286Z,990.34
2016-04-16T05:55:00.303Z,990.31
2016-04-16T05:56:00.337Z,990.3
2016-04-16T05:57:00.340Z,990.34
2016-04-16T05:58:00.374Z,990.32
2016-04-16T05:59:00.392Z,990.32
2016-04-16T06:00:00.410Z,990.35
2016-04-16T06:01:00.430Z,990.35
2016-04-16T06:02:00.447Z,990.32
2016-04-16T06:03:00.466Z,990.35
2016-04-16T06:04:00.483Z,990.32
2016-04-16T06:05:00.502Z,990.34
2016-04-16T06:06:00.552Z,990.37
2016-04-16T06:07:00.554Z,990.31
2016-04-16T06:08:00.604Z,990.3
2016-04-16T06:09:00.591Z,990.31
2016-04-16T06:10:00.609Z,990.28
2016-04-16T06:11:00.627Z,990.31
2016-04-16T06:12:00.646Z,990.3
2016-04-16T06:13:00.680Z,990.31
2016-04-16T06:14:00.777Z,990.3
2016-04-16T06:15:00.732Z,990.3
2016-04-16T06:16:00.735Z,990.28
2016-04-16T06:17:00.754Z,990.24
2016-04-16T06:18:00.772Z,990.23
2016-04-16T06:19:00.806Z,990.22
2016-04-16T06:20:00.824Z,990.21
2016-04-16T06:21:00.904Z,990.25
2016-04-16T06:22:00.861Z,990.22
2016-04-16T06:23:00.878Z,990.22
2016-04-16T06:24:00.898Z,990.22
2016-04-16T06:25:00.931Z,990.19
2016-04-16T06:26:00.950Z,990.19
2016-04-16T06:27:00.968Z,990.21
2016-04-16T06:28:00.986Z,990.18
2016-04-16T06:29:01.004Z,990.21
2016-04-16T06:30:01.023Z,990.19
2016-04-16T06:31:01.041Z,990.21
2016-04-16T06:32:01.075Z,990.2
2016-04-16T06:33:01.093Z,990.24
2016-04-16T06:34:01.111Z,990.23
2016-04-16T06:35:01.130Z,990.21
2016-04-16T06:36:01.148Z,990.24
2016-04-16T06:37:01.167Z,990.25
2016-04-16T06:38:01.185Z,990.23
2016-04-16T06:39:01.219Z,990.3
2016-04-16T06:40:01.237Z,990.29
2016-04-16T06:41:01.255Z,990.26
2016-04-16T06:42:01.274Z,990.3
2016-04-16T06:43:01.293Z,990.3
2016-04-16T06:44:01.327Z,990.3
2016-04-16T06:45:01.329Z,990.27
2016-04-16T06:46:01.363Z,990.31
2016-04-16T06:47:01.381Z,990.32
2016-04-16T06:48:01.399Z,990.32
2016-04-16T06:49:01.418Z,990.36
2016-04-16T06:50:01.451Z,990.37
2016-04-16T06:51:01.470Z,990.41
2016-04-16T06:52:01.488Z,990.36
2016-04-16T06:53:01.507Z,990.38
2016-04-16T06:54:01.540Z,990.34
2016-04-16T06:55:01.543Z,990.35
2016-04-16T06:56:01.562Z,990.35
2016-04-16T06:57:01.595Z,990.32
2016-04-16T06:58:01.614Z,990.34
2016-04-16T06:59:01.632Z,990.32
2016-04-16T07:00:01.650Z,990.33
2016-04-16T07:01:01.669Z,990.31
2016-04-16T07:02:01.687Z,990.28
2016-04-16T07:03:01.721Z,990.32
2016-04-16T07:04:01.739Z,990.3
2016-04-16T07:05:01.758Z,990.3
2016-04-16T07:06:01.791Z,990.28
2016-04-16T07:07:01.794Z,990.28
2016-04-16T07:08:01.813Z,990.28
2016-04-16T07:09:01.846Z,990.32
2016-04-16T07:10:01.865Z,990.29
2016-04-16T07:11:01.882Z,990.32
2016-04-16T07:12:01.902Z,990.31
2016-04-16T07:13:01.920Z,990.29
2016-04-16T07:14:01.953Z,990.26
2016-04-16T07:15:01.972Z,990.33
2016-04-16T07:16:01.990Z,990.3
2016-04-16T07:17:02.009Z,990.31
2016-04-16T07:18:02.027Z,990.32
2016-04-16T07:19:02.045Z,990.28
2016-04-16T07:20:02.079Z,990.28
2016-04-16T07:21:02.097Z,990.27
2016-04-16T07:22:02.115Z,990.28
2016-04-16T07:23:02.134Z,990.27
2016-04-16T07:24:02.167Z,990.25
2016-04-16T07:25:02.186Z,990.26
2016-04-16T07:26:02.204Z,990.25
2016-04-16T07:27:02.223Z,990.24
2016-04-16T07:28:02.241Z,990.27
2016-04-16T07:29:02.259Z,990.25
2016-04-16T07:30:02.278Z,990.23
2016-04-16T07:31:02.312Z,990.24
2016-04-16T07:32:02.331Z,990.23
2016-04-16T07:33:02.348Z,990.18
2016-04-16T07:34:02.367Z,990.24
2016-04-16T07:35:02.400Z,990.23
2016-04-16T07:36:02.419Z,990.25
2016-04-16T07:37:02.438Z,990.27
2016-04-16T07:38:02.455Z,990.24
2016-04-16T07:39:02.474Z,990.23
2016-04-16T07:40:02.491Z,990.26
2016-04-16T07:41:02.526Z,990.27
2016-04-16T07:42:02.545Z,990.24
2016-04-16T07:43:02.562Z,990.22
2016-04-16T07:44:02.581Z,990.21
2016-04-16T07:45:02.599Z,990.22
2016-04-16T07:46:02.633Z,990.21
2016-04-16T07:47:02.652Z,990.26
2016-04-16T07:48:02.671Z,990.2
2016-04-16T07:49:02.688Z,990.24
2016-04-16T07:50:02.723Z,990.23
2016-04-16T07:51:02.725Z,990.23
2016-04-16T07:52:02.759Z,990.21
2016-04-16T07:53:02.777Z,990.25
2016-04-16T07:54:02.796Z,990.26
2016-04-16T07:55:02.829Z,990.29
2016-04-16T07:56:02.848Z,990.26
2016-04-16T07:57:02.867Z,990.29
2016-04-16T07:58:02.885Z,990.27
2016-04-16T07:59:02.917Z,990.26
2016-04-16T08:00:02.920Z,990.28
2016-04-16T08:01:02.956Z,990.27
2016-04-16T08:02:02.973Z,990.27
2016-04-16T08:03:02.991Z,990.3
2016-04-16T08:04:03.025Z,990.27
2016-04-16T08:05:03.044Z,990.33
2016-04-16T08:06:03.062Z,990.34
2016-04-16T08:07:03.080Z,990.35
2016-04-16T08:08:03.099Z,990.37
2016-04-16T08:09:03.117Z,990.33
2016-04-16T08:10:03.152Z,990.4
2016-04-16T08:11:03.169Z,990.41
2016-04-16T08:12:03.188Z,990.38
2016-04-16T08:13:03.205Z,990.38
2016-04-16T08:14:03.224Z,990.36
2016-04-16T08:15:03.258Z,990.42
2016-04-16T08:16:03.276Z,990.37
2016-04-16T08:17:03.300Z,990.38
2016-04-16T08:18:03.318Z,990.43
2016-04-16T08:19:03.352Z,990.43
2016-04-16T08:20:03.371Z,990.43
2016-04-16T08:21:03.389Z,990.4
2016-04-16T08:22:03.406Z,990.42
2016-04-16T08:23:03.426Z,990.44
2016-04-16T08:24:03.443Z,990.48
2016-04-16T08:25:03.493Z,990.47
2016-04-16T08:26:03.495Z,990.47
2016-04-16T08:27:03.514Z,990.42
2016-04-16T08:28:03.533Z,990.51
2016-04-16T08:29:03.566Z,990.48
2016-04-16T08:30:03.584Z,990.46
2016-04-16T08:31:03.603Z,990.48
2016-04-16T08:32:03.637Z,990.45
2016-04-16T08:33:03.639Z,990.48
2016-04-16T08:34:03.674Z,990.5
2016-04-16T08:35:03.692Z,990.44
2016-04-16T08:36:03.710Z,990.5
2016-04-16T08:37:03.728Z,990.5
2016-04-16T08:38:03.763Z,990.52
2016-04-16T08:39:03.780Z,990.52
2016-04-16T08:40:03.815Z,990.49
2016-04-16T08:41:03.818Z,990.51
2016-04-16T08:42:03.835Z,990.5
2016-04-16T08:43:03.869Z,990.54
2016-04-16T08:44:03.888Z,990.5
2016-04-16T08:45:03.907Z,990.53
2016-04-16T08:46:03.925Z,990.55
2016-04-16T08:47:03.943Z,990.57
2016-04-16T08:48:03.977Z,990.57
2016-04-16T08:49:03.995Z,990.55
2016-04-16T08:50:04.013Z,990.61
2016-04-16T08:51:04.032Z,990.64
2016-04-16T08:52:04.066Z,990.63
2016-04-16T08:53:04.084Z,990.64
2016-04-16T08:54:04.103Z,990.59
2016-04-16T08:55:04.121Z,990.61
2016-04-16T08:56:04.154Z,990.59
2016-04-16T08:57:04.173Z,990.63
2016-04-16T08:58:04.191Z,990.62
2016-04-16T08:59:04.225Z,990.6
2016-04-16T09:00:04.227Z,990.59
2016-04-16T09:01:04.262Z,990.61
2016-04-16T09:02:04.280Z,990.59
2016-04-16T09:03:04.298Z,990.63
2016-04-16T09:04:04.333Z,990.64
2016-04-16T09:05:04.350Z,990.61
2016-04-16T09:06:04.369Z,990.65
2016-04-16T09:07:04.388Z,990.64
2016-04-16T09:08:04.422Z,990.65
2016-04-16T09:09:04.439Z,990.63
2016-04-16T09:10:04.458Z,990.62
2016-04-16T09:11:04.476Z,990.64
2016-04-16T09:12:04.494Z,990.62
2016-04-16T09:13:04.622Z,990.64
2016-04-16T09:14:04.640Z,990.62
2016-04-16T09:15:04.643Z,990.66
2016-04-16T09:16:04.662Z,990.69
2016-04-16T09:17:04.649Z,990.69
2016-04-16T09:18:04.668Z,990.68
2016-04-16T09:19:04.669Z,990.69
2016-04-16T09:20:04.687Z,990.7
2016-04-16T09:21:04.690Z,990.68
2016-04-16T09:22:04.818Z,990.68
2016-04-16T09:23:04.820Z,990.7
2016-04-16T09:24:04.871Z,990.72
2016-04-16T09:25:04.889Z,990.72
2016-04-16T09:26:04.892Z,990.74
2016-04-16T09:27:04.894Z,990.72
2016-04-16T09:28:04.928Z,990.71
2016-04-16T09:29:04.947Z,990.73
2016-04-16T09:30:04.950Z,990.72
2016-04-16T09:31:04.953Z,990.71
2016-04-16T09:32:04.955Z,990.72
2016-04-16T09:33:04.989Z,990.73
2016-04-16T09:34:04.975Z,990.74
2016-04-16T09:35:05.009Z,990.72
2016-04-16T09:36:05.027Z,990.75
2016-04-16T09:37:05.046Z,990.73
2016-04-16T09:38:05.064Z,990.73
2016-04-16T09:39:05.099Z,990.75
2016-04-16T09:40:05.117Z,990.75
2016-04-16T09:41:05.150Z,990.76
2016-04-16T09:42:05.169Z,990.77
2016-04-16T09:43:05.187Z,990.73
2016-04-16T09:44:05.205Z,990.72
2016-04-16T09:45:05.223Z,990.71
2016-04-16T09:46:05.257Z,990.76
2016-04-16T09:47:05.291Z,990.75
2016-04-16T09:48:05.294Z,990.73
2016-04-16T09:49:05.312Z,990.75
2016-04-16T09:50:05.346Z,990.76
2016-04-16T09:51:05.365Z,990.74
2016-04-16T09:52:05.384Z,990.74
2016-04-16T09:53:05.402Z,990.76
2016-04-16T09:54:05.435Z,990.76
2016-04-16T09:55:05.454Z,990.74
2016-04-16T09:56:05.472Z,990.74
2016-04-16T09:57:05.506Z,990.72
2016-04-16T09:58:05.525Z,990.7
2016-04-16T09:59:05.542Z,990.71
2016-04-16T10:00:05.655Z,990.73
2016-04-16T10:01:05.578Z,990.71
2016-04-16T10:02:05.723Z,990.74
2016-04-16T10:03:05.726Z,990.64
2016-04-16T10:04:05.744Z,990.66
2016-04-16T10:05:05.777Z,990.71
2016-04-16T10:06:05.780Z,990.68
2016-04-16T10:07:05.783Z,990.74
2016-04-16T10:08:05.786Z,990.75
2016-04-16T10:09:05.805Z,990.71
2016-04-16T10:10:05.822Z,990.74
2016-04-16T10:11:05.810Z,990.71
2016-04-16T10:12:05.938Z,990.65
2016-04-16T10:13:05.861Z,990.66
2016-04-16T10:14:05.880Z,990.65
2016-04-16T10:15:05.899Z,990.62
2016-04-16T10:16:05.933Z,990.66
2016-04-16T10:17:05.951Z,990.68
2016-04-16T10:18:05.969Z,990.68
2016-04-16T10:19:05.987Z,990.72
2016-04-16T10:20:06.005Z,990.73
2016-04-16T10:21:06.039Z,990.73
2016-04-16T10:22:06.057Z,990.76
2016-04-16T10:23:06.076Z,990.79
2016-04-16T10:24:06.095Z,990.77
2016-04-16T10:25:06.129Z,990.79
2016-04-16T10:26:06.146Z,990.77
2016-04-16T10:27:06.165Z,990.82
2016-04-16T10:28:06.198Z,990.79
2016-04-16T10:29:06.217Z,990.86
2016-04-16T10:30:06.235Z,990.8
2016-04-16T10:31:06.269Z,990.84
2016-04-16T10:32:06.287Z,990.88
2016-04-16T10:33:06.306Z,990.89
2016-04-16T10:34:06.324Z,990.89
2016-04-16T10:35:06.358Z,990.94
2016-04-16T10:36:06.377Z,990.88
2016-04-16T10:37:06.395Z,990.92
2016-04-16T10:38:06.429Z,990.97
2016-04-16T10:39:06.447Z,991
2016-04-16T10:40:06.466Z,990.97
2016-04-16T10:41:06.499Z,991
2016-04-16T10:42:06.518Z,990.97
2016-04-16T10:43:06.536Z,990.98
2016-04-16T10:44:06.555Z,990.98
2016-04-16T10:45:06.588Z,990.99
2016-04-16T10:46:06.607Z,991
2016-04-16T10:47:06.625Z,991.02
2016-04-16T10:48:06.643Z,991.04
2016-04-16T10:49:06.677Z,991.09
2016-04-16T10:50:06.695Z,991.08
2016-04-16T10:51:06.713Z,991.05
2016-04-16T10:52:06.731Z,991.06
2016-04-16T10:53:06.765Z,991.07
2016-04-16T10:54:06.784Z,991.04
2016-04-16T10:55:06.803Z,991.08
2016-04-16T10:56:06.836Z,991.05
2016-04-16T10:57:06.854Z,991.07
2016-04-16T10:58:06.873Z,991.04
2016-04-16T10:59:06.892Z,991.11
2016-04-16T11:00:06.926Z,991.08
2016-04-16T11:01:06.945Z,991.06
2016-04-16T11:02:06.962Z,991.11
2016-04-16T11:03:06.996Z,991.14
2016-04-16T11:04:07.014Z,991.13
2016-04-16T11:05:07.033Z,991.12
2016-04-16T11:06:07.050Z,991.13
2016-04-16T11:07:07.100Z,991.2
2016-04-16T11:08:07.103Z,991.14
2016-04-16T11:09:07.122Z,991.16
2016-04-16T11:10:07.140Z,991.2
2016-04-16T11:11:07.174Z,991.24
2016-04-16T11:12:07.192Z,991.22
2016-04-16T11:13:07.210Z,991.25
2016-04-16T11:14:07.244Z,991.3
2016-04-16T11:15:07.262Z,991.35
2016-04-16T11:16:07.280Z,991.32
2016-04-16T11:17:07.299Z,991.37
2016-04-16T11:18:07.333Z,991.35
2016-04-16T11:19:07.351Z,991.34
2016-04-16T11:20:07.370Z,991.39
2016-04-16T11:21:07.419Z,991.33
2016-04-16T11:22:07.469Z,991.35
2016-04-16T11:23:07.440Z,991.31
2016-04-16T11:24:07.459Z,991.41
2016-04-16T11:25:07.493Z,991.33
2016-04-16T11:26:07.511Z,991.42
2016-04-16T11:27:07.529Z,991.37
2016-04-16T11:28:07.548Z,991.39
2016-04-16T11:29:07.581Z,991.33
2016-04-16T11:30:07.600Z,991.39
2016-04-16T11:31:07.617Z,991.37
2016-04-16T11:32:07.653Z,991.33
2016-04-16T11:33:07.670Z,991.38
2016-04-16T11:34:07.689Z,991.36
2016-04-16T11:35:07.707Z,991.36
2016-04-16T11:36:07.741Z,991.4
2016-04-16T11:37:07.775Z,991.37
2016-04-16T11:38:07.778Z,991.4
2016-04-16T11:39:07.796Z,991.4
2016-04-16T11:40:07.830Z,991.41
2016-04-16T11:41:07.848Z,991.41
2016-04-16T11:42:07.866Z,991.41
2016-04-16T11:43:07.900Z,991.43
2016-04-16T11:44:07.919Z,991.44
2016-04-16T11:45:07.937Z,991.47
2016-04-16T11:46:07.971Z,991.43
2016-04-16T11:47:07.989Z,991.44
2016-04-16T11:48:08.007Z,991.47
2016-04-16T11:49:08.026Z,991.48
2016-04-16T11:50:08.076Z,991.52
2016-04-16T11:51:08.153Z,991.5
2016-04-16T11:52:08.247Z,991.53
2016-04-16T11:53:08.262Z,991.49
2016-04-16T11:54:08.371Z,991.54
2016-04-16T11:55:08.387Z,991.53
2016-04-16T11:56:08.422Z,991.55
2016-04-16T11:57:08.456Z,991.5
2016-04-16T11:58:08.505Z,991.55
2016-04-16T11:59:08.540Z,991.56
2016-04-16T12:00:08.573Z,991.57
2016-04-16T12:01:08.613Z,991.58
2016-04-16T12:02:08.638Z,991.56
2016-04-16T12:03:08.771Z,991.56
2016-04-16T12:04:08.795Z,991.61
2016-04-16T12:05:08.726Z,991.61
2016-04-16T12:06:08.839Z,991.64
2016-04-16T12:07:08.891Z,991.62
2016-04-16T12:08:08.850Z,991.64
2016-04-16T12:09:08.870Z,991.66
2016-04-16T12:10:08.876Z,991.62
2016-04-16T12:11:08.894Z,991.59
2016-04-16T12:12:08.898Z,991.61
2016-04-16T12:13:09.026Z,991.59
2016-04-16T12:14:09.045Z,991.61
2016-04-16T12:15:08.987Z,991.61
2016-04-16T12:16:08.990Z,991.57
2016-04-16T12:17:09.102Z,991.62
2016-04-16T12:18:09.106Z,991.58
2016-04-16T12:19:09.124Z,991.6
2016-04-16T12:20:09.159Z,991.62
2016-04-16T12:21:09.161Z,991.58
2016-04-16T12:22:09.164Z,991.58
2016-04-16T12:23:09.181Z,991.59
2016-04-16T12:24:09.184Z,991.65
2016-04-16T12:25:09.187Z,991.65
2016-04-16T12:26:09.222Z,991.65
2016-04-16T12:27:09.239Z,991.62
2016-04-16T12:28:09.258Z,991.63
2016-04-16T12:29:09.277Z,991.68
2016-04-16T12:30:09.294Z,991.66
2016-04-16T12:31:09.328Z,991.66
2016-04-16T12:32:09.347Z,991.69